sensor_id;sensor_type;location;lat;lon;timestamp;pressure;altitude;pressure_sealevel;temperature;humidity
27613;BME280;15036;48.094;-1.690;2023-09-19T00:00:21;100922.41;;;21.09;55.63
27613;BME280;15036;48.094;-1.690;2023-09-19T00:02:57;100926.63;;;21.16;55.50
27613;BME280;15036;48.094;-1.690;2023-09-19T00:05:28;100921.69;;;20.97;56.01
27613;BME280;15036;48.094;-1.690;2023-09-19T00:07:55;100914.91;;;21.09;55.90
27613;BME280;15036;48.094;-1.690;2023-09-19T00:10:27;100928.53;;;21.11;55.85
27613;BME280;15036;48.094;-1.690;2023-09-19T00:12:55;100924.91;;;21.10;55.87
27613;BME280;15036;48.094;-1.690;2023-09-19T00:15:24;100932.13;;;20.85;56.14
27613;BME280;15036;48.094;-1.690;2023-09-19T00:17:51;100928.59;;;20.94;56.24
27613;BME280;15036;48.094;-1.690;2023-09-19T00:20:18;100928.31;;;20.96;56.12
27613;BME280;15036;48.094;-1.690;2023-09-19T00:22:44;100922.34;;;20.77;56.81
27613;BME280;15036;48.094;-1.690;2023-09-19T00:25:10;100922.25;;;20.72;56.42
27613;BME280;15036;48.094;-1.690;2023-09-19T00:27:37;100923.38;;;20.71;56.89
27613;BME280;15036;48.094;-1.690;2023-09-19T00:30:08;100923.31;;;20.93;56.38
27613;BME280;15036;48.094;-1.690;2023-09-19T00:32:39;100923.34;;;20.98;56.34
27613;BME280;15036;48.094;-1.690;2023-09-19T00:35:05;100930.75;;;20.87;56.40
27613;BME280;15036;48.094;-1.690;2023-09-19T00:37:30;100920.56;;;20.98;56.25
27613;BME280;15036;48.094;-1.690;2023-09-19T00:39:56;100920.97;;;21.06;55.89
27613;BME280;15036;48.094;-1.690;2023-09-19T00:42:21;100927.22;;;20.92;56.38
27613;BME280;15036;48.094;-1.690;2023-09-19T00:44:47;100926.06;;;20.88;56.49
27613;BME280;15036;48.094;-1.690;2023-09-19T00:47:13;100924.47;;;20.97;56.22
27613;BME280;15036;48.094;-1.690;2023-09-19T00:49:44;100929.47;;;21.00;55.92
27613;BME280;15036;48.094;-1.690;2023-09-19T00:52:11;100923.84;;;20.90;56.19
27613;BME280;15036;48.094;-1.690;2023-09-19T00:54:37;100929.34;;;20.85;56.35
27613;BME280;15036;48.094;-1.690;2023-09-19T00:57:03;100925.81;;;20.94;55.98
27613;BME280;15036;48.094;-1.690;2023-09-19T00:59:29;100929.69;;;20.66;56.55
27613;BME280;15036;48.094;-1.690;2023-09-19T01:01:56;100923.47;;;20.81;56.33
27613;BME280;15036;48.094;-1.690;2023-09-19T01:04:22;100922.94;;;20.84;56.09
27613;BME280;15036;48.094;-1.690;2023-09-19T01:06:48;100923.75;;;20.80;56.02
27613;BME280;15036;48.094;-1.690;2023-09-19T01:09:18;100922.06;;;20.79;56.15
27613;BME280;15036;48.094;-1.690;2023-09-19T01:11:46;100919.72;;;20.65;56.57
27613;BME280;15036;48.094;-1.690;2023-09-19T01:17:24;100934.13;;;20.89;55.43
27613;BME280;15036;48.094;-1.690;2023-09-19T01:20:21;100935.22;;;20.18;57.38
27613;BME280;15036;48.094;-1.690;2023-09-19T01:29:26;100944.50;;;20.50;56.21
27613;BME280;15036;48.094;-1.690;2023-09-19T01:32:02;100944.72;;;20.70;55.79
27613;BME280;15036;48.094;-1.690;2023-09-19T01:37:15;100940.88;;;20.71;55.57
27613;BME280;15036;48.094;-1.690;2023-09-19T01:39:51;100938.44;;;20.80;55.43
27613;BME280;15036;48.094;-1.690;2023-09-19T01:42:37;100929.81;;;20.77;55.48
27613;BME280;15036;48.094;-1.690;2023-09-19T01:45:10;100937.44;;;20.64;55.74
27613;BME280;15036;48.094;-1.690;2023-09-19T01:47:42;100936.41;;;20.70;55.23
27613;BME280;15036;48.094;-1.690;2023-09-19T01:52:46;100939.66;;;20.62;55.47
27613;BME280;15036;48.094;-1.690;2023-09-19T01:55:13;100935.75;;;20.85;54.99
27613;BME280;15036;48.094;-1.690;2023-09-19T01:57:51;100934.66;;;20.64;55.31
27613;BME280;15036;48.094;-1.690;2023-09-19T02:00:20;100933.13;;;20.73;54.93
27613;BME280;15036;48.094;-1.690;2023-09-19T02:02:47;100940.25;;;20.91;54.82
27613;BME280;15036;48.094;-1.690;2023-09-19T02:05:13;100939.28;;;20.81;54.72
27613;BME280;15036;48.094;-1.690;2023-09-19T02:07:46;100939.81;;;20.78;55.01
27613;BME280;15036;48.094;-1.690;2023-09-19T02:10:12;100938.22;;;20.82;54.80
27613;BME280;15036;48.094;-1.690;2023-09-19T02:12:37;100931.50;;;20.78;54.90
27613;BME280;15036;48.094;-1.690;2023-09-19T02:15:03;100928.56;;;20.89;54.43
27613;BME280;15036;48.094;-1.690;2023-09-19T02:17:32;100931.84;;;20.86;54.75
27613;BME280;15036;48.094;-1.690;2023-09-19T02:19:57;100933.75;;;20.81;54.81
27613;BME280;15036;48.094;-1.690;2023-09-19T02:22:24;100932.84;;;20.75;54.86
27613;BME280;15036;48.094;-1.690;2023-09-19T02:24:50;100934.06;;;20.57;55.19
27613;BME280;15036;48.094;-1.690;2023-09-19T02:27:16;100934.16;;;20.67;55.19
27613;BME280;15036;48.094;-1.690;2023-09-19T02:29:43;100932.78;;;20.70;54.90
27613;BME280;15036;48.094;-1.690;2023-09-19T02:32:08;100929.94;;;20.60;55.11
27613;BME280;15036;48.094;-1.690;2023-09-19T02:34:36;100933.13;;;20.73;54.71
27613;BME280;15036;48.094;-1.690;2023-09-19T02:37:07;100924.47;;;20.70;54.83
27613;BME280;15036;48.094;-1.690;2023-09-19T02:39:36;100923.09;;;20.72;54.95
27613;BME280;15036;48.094;-1.690;2023-09-19T02:42:01;100927.59;;;20.79;54.86
27613;BME280;15036;48.094;-1.690;2023-09-19T02:44:29;100919.13;;;20.63;55.24
27613;BME280;15036;48.094;-1.690;2023-09-19T02:46:54;100916.47;;;20.73;54.89
27613;BME280;15036;48.094;-1.690;2023-09-19T02:49:20;100913.06;;;20.66;54.98
27613;BME280;15036;48.094;-1.690;2023-09-19T02:51:45;100901.84;;;20.56;55.22
27613;BME280;15036;48.094;-1.690;2023-09-19T02:54:13;100897.53;;;20.65;55.00
27613;BME280;15036;48.094;-1.690;2023-09-19T02:56:40;100907.03;;;20.48;55.33
27613;BME280;15036;48.094;-1.690;2023-09-19T02:59:05;100910.81;;;20.63;55.04
27613;BME280;15036;48.094;-1.690;2023-09-19T03:01:31;100902.19;;;20.38;55.58
27613;BME280;15036;48.094;-1.690;2023-09-19T03:03:57;100902.72;;;20.35;55.82
27613;BME280;15036;48.094;-1.690;2023-09-19T03:06:23;100910.59;;;20.43;55.66
27613;BME280;15036;48.094;-1.690;2023-09-19T03:08:49;100915.28;;;20.43;55.66
27613;BME280;15036;48.094;-1.690;2023-09-19T03:11:16;100926.69;;;20.46;55.67
27613;BME280;15036;48.094;-1.690;2023-09-19T03:13:44;100924.13;;;20.61;55.40
27613;BME280;15036;48.094;-1.690;2023-09-19T03:16:11;100916.28;;;20.58;55.29
27613;BME280;15036;48.094;-1.690;2023-09-19T03:18:36;100921.25;;;20.56;55.48
27613;BME280;15036;48.094;-1.690;2023-09-19T03:21:02;100910.25;;;20.61;55.28
27613;BME280;15036;48.094;-1.690;2023-09-19T03:23:28;100908.03;;;20.63;55.26
27613;BME280;15036;48.094;-1.690;2023-09-19T03:25:56;100914.91;;;20.56;55.51
27613;BME280;15036;48.094;-1.690;2023-09-19T03:28:24;100913.63;;;20.68;55.30
27613;BME280;15036;48.094;-1.690;2023-09-19T03:31:00;100911.75;;;20.47;55.64
27613;BME280;15036;48.094;-1.690;2023-09-19T03:33:25;100910.84;;;20.42;55.89
27613;BME280;15036;48.094;-1.690;2023-09-19T03:35:54;100918.38;;;20.46;55.60
27613;BME280;15036;48.094;-1.690;2023-09-19T03:38:20;100909.66;;;20.59;55.61
27613;BME280;15036;48.094;-1.690;2023-09-19T03:40:47;100915.22;;;20.59;55.21
27613;BME280;15036;48.094;-1.690;2023-09-19T03:43:12;100920.53;;;20.39;55.83
27613;BME280;15036;48.094;-1.690;2023-09-19T03:45:37;100916.06;;;20.38;55.84
27613;BME280;15036;48.094;-1.690;2023-09-19T03:48:11;100914.53;;;20.47;55.42
27613;BME280;15036;48.094;-1.690;2023-09-19T03:50:36;100911.34;;;20.17;56.42
27613;BME280;15036;48.094;-1.690;2023-09-19T03:53:02;100917.91;;;20.28;56.40
27613;BME280;15036;48.094;-1.690;2023-09-19T03:55:28;100914.44;;;20.42;55.76
27613;BME280;15036;48.094;-1.690;2023-09-19T03:57:55;100908.69;;;20.22;56.51
27613;BME280;15036;48.094;-1.690;2023-09-19T04:00:21;100904.84;;;20.28;56.32
27613;BME280;15036;48.094;-1.690;2023-09-19T04:02:48;100905.53;;;20.40;56.13
27613;BME280;15036;48.094;-1.690;2023-09-19T04:05:14;100901.38;;;20.64;55.27
27613;BME280;15036;48.094;-1.690;2023-09-19T04:07:39;100909.00;;;20.52;55.54
27613;BME280;15036;48.094;-1.690;2023-09-19T04:10:05;100907.31;;;20.25;56.11
27613;BME280;15036;48.094;-1.690;2023-09-19T04:12:33;100896.22;;;20.73;55.02
27613;BME280;15036;48.094;-1.690;2023-09-19T04:14:59;100888.72;;;20.73;55.02
27613;BME280;15036;48.094;-1.690;2023-09-19T04:17:24;100886.31;;;20.55;55.47
27613;BME280;15036;48.094;-1.690;2023-09-19T04:19:49;100885.78;;;20.58;55.45
27613;BME280;15036;48.094;-1.690;2023-09-19T04:22:15;100889.25;;;20.44;55.70
27613;BME280;15036;48.094;-1.690;2023-09-19T04:24:40;100888.31;;;20.60;55.22
27613;BME280;15036;48.094;-1.690;2023-09-19T04:27:06;100893.53;;;20.83;54.82
27613;BME280;15036;48.094;-1.690;2023-09-19T04:29:32;100891.53;;;20.79;54.74
27613;BME280;15036;48.094;-1.690;2023-09-19T04:31:57;100888.94;;;20.67;55.09
27613;BME280;15036;48.094;-1.690;2023-09-19T04:34:23;100881.91;;;20.59;55.27
27613;BME280;15036;48.094;-1.690;2023-09-19T04:36:49;100882.53;;;20.66;55.04
27613;BME280;15036;48.094;-1.690;2023-09-19T04:39:14;100881.91;;;20.59;55.34
27613;BME280;15036;48.094;-1.690;2023-09-19T04:41:40;100877.06;;;20.71;54.96
27613;BME280;15036;48.094;-1.690;2023-09-19T04:44:06;100886.44;;;20.65;55.33
27613;BME280;15036;48.094;-1.690;2023-09-19T04:46:33;100876.53;;;20.48;55.59
27613;BME280;15036;48.094;-1.690;2023-09-19T04:48:58;100870.69;;;20.76;54.73
27613;BME280;15036;48.094;-1.690;2023-09-19T04:51:24;100884.72;;;20.64;55.31
27613;BME280;15036;48.094;-1.690;2023-09-19T04:53:50;100889.59;;;20.52;55.73
27613;BME280;15036;48.094;-1.690;2023-09-19T04:56:16;100891.03;;;20.82;54.59
27613;BME280;15036;48.094;-1.690;2023-09-19T04:58:41;100885.13;;;20.78;54.87
27613;BME280;15036;48.094;-1.690;2023-09-19T05:01:06;100885.47;;;20.82;54.81
27613;BME280;15036;48.094;-1.690;2023-09-19T05:03:36;100884.47;;;20.66;55.06
27613;BME280;15036;48.094;-1.690;2023-09-19T05:06:02;100889.59;;;20.79;55.03
27613;BME280;15036;48.094;-1.690;2023-09-19T05:08:27;100888.38;;;20.70;55.31
27613;BME280;15036;48.094;-1.690;2023-09-19T05:10:53;100889.94;;;20.56;55.43
27613;BME280;15036;48.094;-1.690;2023-09-19T05:13:18;100887.47;;;20.59;55.15
27613;BME280;15036;48.094;-1.690;2023-09-19T05:15:43;100892.06;;;20.76;54.82
27613;BME280;15036;48.094;-1.690;2023-09-19T05:18:09;100880.34;;;20.42;55.55
27613;BME280;15036;48.094;-1.690;2023-09-19T05:20:35;100879.66;;;20.56;55.32
27613;BME280;15036;48.094;-1.690;2023-09-19T05:23:04;100879.38;;;20.31;55.75
27613;BME280;15036;48.094;-1.690;2023-09-19T05:25:32;100876.06;;;20.34;55.88
27613;BME280;15036;48.094;-1.690;2023-09-19T05:28:03;100882.19;;;20.36;55.96
27613;BME280;15036;48.094;-1.690;2023-09-19T05:30:31;100884.00;;;20.47;55.62
27613;BME280;15036;48.094;-1.690;2023-09-19T05:32:56;100881.84;;;20.54;55.54
27613;BME280;15036;48.094;-1.690;2023-09-19T05:35:22;100881.25;;;20.47;55.55
27613;BME280;15036;48.094;-1.690;2023-09-19T05:37:50;100890.19;;;20.54;55.68
27613;BME280;15036;48.094;-1.690;2023-09-19T05:40:19;100894.91;;;20.32;56.23
27613;BME280;15036;48.094;-1.690;2023-09-19T05:42:45;100894.06;;;20.53;55.59
27613;BME280;15036;48.094;-1.690;2023-09-19T05:45:11;100901.69;;;20.68;55.35
27613;BME280;15036;48.094;-1.690;2023-09-19T05:47:40;100899.28;;;20.77;54.99
27613;BME280;15036;48.094;-1.690;2023-09-19T05:50:11;100898.03;;;20.62;55.56
27613;BME280;15036;48.094;-1.690;2023-09-19T05:52:37;100905.19;;;20.58;55.38
27613;BME280;15036;48.094;-1.690;2023-09-19T05:55:06;100894.63;;;20.55;55.47
27613;BME280;15036;48.094;-1.690;2023-09-19T05:57:33;100890.44;;;20.53;55.57
27613;BME280;15036;48.094;-1.690;2023-09-19T05:59:59;100890.19;;;20.54;55.60
27613;BME280;15036;48.094;-1.690;2023-09-19T06:02:24;100906.19;;;20.47;55.88
27613;BME280;15036;48.094;-1.690;2023-09-19T06:04:54;100903.00;;;20.60;55.54
27613;BME280;15036;48.094;-1.690;2023-09-19T06:07:20;100896.44;;;20.45;55.96
27613;BME280;15036;48.094;-1.690;2023-09-19T06:09:47;100893.00;;;20.59;55.65
27613;BME280;15036;48.094;-1.690;2023-09-19T06:12:12;100891.91;;;20.60;55.63
27613;BME280;15036;48.094;-1.690;2023-09-19T06:14:42;100888.16;;;20.71;55.42
27613;BME280;15036;48.094;-1.690;2023-09-19T06:17:08;100890.34;;;20.69;55.52
27613;BME280;15036;48.094;-1.690;2023-09-19T06:19:34;100889.53;;;20.74;55.36
27613;BME280;15036;48.094;-1.690;2023-09-19T06:21:59;100891.22;;;20.75;55.54
27613;BME280;15036;48.094;-1.690;2023-09-19T06:24:24;100887.56;;;20.69;55.38
27613;BME280;15036;48.094;-1.690;2023-09-19T06:26:50;100895.94;;;20.74;55.49
27613;BME280;15036;48.094;-1.690;2023-09-19T06:29:18;100896.03;;;20.85;55.15
27613;BME280;15036;48.094;-1.690;2023-09-19T06:31:43;100893.53;;;20.83;55.23
27613;BME280;15036;48.094;-1.690;2023-09-19T06:34:10;100892.50;;;20.94;55.03
27613;BME280;15036;48.094;-1.690;2023-09-19T06:36:35;100887.84;;;21.00;54.58
27613;BME280;15036;48.094;-1.690;2023-09-19T06:39:00;100885.44;;;21.03;54.73
27613;BME280;15036;48.094;-1.690;2023-09-19T06:41:26;100888.91;;;20.94;54.99
27613;BME280;15036;48.094;-1.690;2023-09-19T06:43:51;100889.72;;;20.62;55.75
27613;BME280;15036;48.094;-1.690;2023-09-19T06:46:19;100878.63;;;20.94;55.16
27613;BME280;15036;48.094;-1.690;2023-09-19T06:48:45;100883.25;;;20.52;56.21
27613;BME280;15036;48.094;-1.690;2023-09-19T06:51:12;100879.72;;;20.61;56.18
27613;BME280;15036;48.094;-1.690;2023-09-19T06:53:40;100891.09;;;20.60;56.14
27613;BME280;15036;48.094;-1.690;2023-09-19T06:56:06;100889.22;;;20.97;55.34
27613;BME280;15036;48.094;-1.690;2023-09-19T06:58:31;100891.31;;;21.12;54.81
27613;BME280;15036;48.094;-1.690;2023-09-19T07:00:56;100879.78;;;20.98;55.49
27613;BME280;15036;48.094;-1.690;2023-09-19T07:03:22;100879.22;;;21.28;54.68
27613;BME280;15036;48.094;-1.690;2023-09-19T07:05:51;100888.03;;;21.20;54.57
27613;BME280;15036;48.094;-1.690;2023-09-19T07:08:16;100880.06;;;21.28;54.68
27613;BME280;15036;48.094;-1.690;2023-09-19T07:10:42;100879.00;;;21.34;54.58
27613;BME280;15036;48.094;-1.690;2023-09-19T07:13:14;100883.28;;;21.47;54.28
27613;BME280;15036;48.094;-1.690;2023-09-19T07:15:43;100884.34;;;21.41;54.48
27613;BME280;15036;48.094;-1.690;2023-09-19T07:18:16;100880.16;;;21.38;54.48
27613;BME280;15036;48.094;-1.690;2023-09-19T07:20:42;100885.91;;;21.27;54.45
27613;BME280;15036;48.094;-1.690;2023-09-19T07:23:21;100883.03;;;21.17;54.90
27613;BME280;15036;48.094;-1.690;2023-09-19T07:25:51;100881.34;;;21.16;55.18
27613;BME280;15036;48.094;-1.690;2023-09-19T07:28:17;100881.69;;;21.24;55.02
27613;BME280;15036;48.094;-1.690;2023-09-19T07:30:42;100879.72;;;21.62;54.56
27613;BME280;15036;48.094;-1.690;2023-09-19T07:33:07;100873.25;;;21.46;55.14
27613;BME280;15036;48.094;-1.690;2023-09-19T07:35:36;100872.88;;;21.79;54.43
27613;BME280;15036;48.094;-1.690;2023-09-19T07:38:02;100872.97;;;21.89;54.56
27613;BME280;15036;48.094;-1.690;2023-09-19T07:40:28;100874.81;;;21.74;54.61
27613;BME280;15036;48.094;-1.690;2023-09-19T07:42:55;100873.34;;;22.08;54.36
27613;BME280;15036;48.094;-1.690;2023-09-19T07:45:20;100874.78;;;22.20;53.77
27613;BME280;15036;48.094;-1.690;2023-09-19T07:47:46;100868.44;;;22.40;53.72
27613;BME280;15036;48.094;-1.690;2023-09-19T07:50:13;100872.81;;;22.21;54.03
27613;BME280;15036;48.094;-1.690;2023-09-19T07:52:39;100867.03;;;22.37;53.81
27613;BME280;15036;48.094;-1.690;2023-09-19T07:55:06;100871.13;;;22.10;54.57
27613;BME280;15036;48.094;-1.690;2023-09-19T07:57:35;100873.16;;;22.44;54.00
27613;BME280;15036;48.094;-1.690;2023-09-19T08:00:02;100867.13;;;22.63;53.74
27613;BME280;15036;48.094;-1.690;2023-09-19T08:02:36;100860.72;;;22.62;53.86
27613;BME280;15036;48.094;-1.690;2023-09-19T08:05:03;100866.50;;;22.51;54.08
27613;BME280;15036;48.094;-1.690;2023-09-19T08:07:34;100866.59;;;22.71;53.57
27613;BME280;15036;48.094;-1.690;2023-09-19T08:10:01;100863.81;;;22.96;52.60
27613;BME280;15036;48.094;-1.690;2023-09-19T08:12:26;100876.91;;;22.85;52.76
27613;BME280;15036;48.094;-1.690;2023-09-19T08:14:52;100869.38;;;22.96;52.96
27613;BME280;15036;48.094;-1.690;2023-09-19T08:17:17;100867.16;;;23.13;52.48
27613;BME280;15036;48.094;-1.690;2023-09-19T08:19:45;100866.06;;;23.49;51.74
27613;BME280;15036;48.094;-1.690;2023-09-19T08:22:11;100863.00;;;23.15;52.33
27613;BME280;15036;48.094;-1.690;2023-09-19T08:24:36;100873.56;;;23.08;52.92
27613;BME280;15036;48.094;-1.690;2023-09-19T08:27:04;100869.66;;;23.19;52.38
27613;BME280;15036;48.094;-1.690;2023-09-19T08:29:30;100875.53;;;23.03;52.72
27613;BME280;15036;48.094;-1.690;2023-09-19T08:31:57;100866.31;;;23.27;52.51
27613;BME280;15036;48.094;-1.690;2023-09-19T08:34:23;100867.47;;;23.01;52.62
27613;BME280;15036;48.094;-1.690;2023-09-19T08:36:55;100870.50;;;23.00;52.96
27613;BME280;15036;48.094;-1.690;2023-09-19T08:39:24;100868.56;;;23.51;52.25
27613;BME280;15036;48.094;-1.690;2023-09-19T08:41:57;100860.44;;;23.59;51.54
27613;BME280;15036;48.094;-1.690;2023-09-19T08:44:24;100866.63;;;23.21;52.55
27613;BME280;15036;48.094;-1.690;2023-09-19T08:46:55;100867.13;;;23.63;51.85
27613;BME280;15036;48.094;-1.690;2023-09-19T08:52:41;100859.91;;;23.52;52.11
27613;BME280;15036;48.094;-1.690;2023-09-19T08:55:07;100856.25;;;23.67;51.77
27613;BME280;15036;48.094;-1.690;2023-09-19T08:57:36;100858.75;;;23.63;52.03
27613;BME280;15036;48.094;-1.690;2023-09-19T09:00:05;100858.38;;;24.00;51.12
27613;BME280;15036;48.094;-1.690;2023-09-19T09:02:40;100856.72;;;23.94;51.66
27613;BME280;15036;48.094;-1.690;2023-09-19T09:05:08;100857.81;;;24.03;51.25
27613;BME280;15036;48.094;-1.690;2023-09-19T09:07:36;100858.38;;;24.05;51.14
27613;BME280;15036;48.094;-1.690;2023-09-19T09:10:05;100862.00;;;24.00;51.40
27613;BME280;15036;48.094;-1.690;2023-09-19T09:12:30;100853.44;;;23.77;51.85
27613;BME280;15036;48.094;-1.690;2023-09-19T09:14:56;100856.44;;;23.95;51.56
27613;BME280;15036;48.094;-1.690;2023-09-19T09:17:23;100859.03;;;23.67;52.38
27613;BME280;15036;48.094;-1.690;2023-09-19T09:19:52;100852.81;;;23.90;51.32
27613;BME280;15036;48.094;-1.690;2023-09-19T09:22:17;100861.44;;;24.08;50.79
27613;BME280;15036;48.094;-1.690;2023-09-19T09:24:59;100865.06;;;24.04;50.85
27613;BME280;15036;48.094;-1.690;2023-09-19T09:27:26;100857.81;;;23.93;50.52
27613;BME280;15036;48.094;-1.690;2023-09-19T09:29:52;100854.53;;;24.50;49.61
27613;BME280;15036;48.094;-1.690;2023-09-19T09:32:24;100856.06;;;24.22;50.42
27613;BME280;15036;48.094;-1.690;2023-09-19T09:34:55;100866.84;;;24.39;49.75
27613;BME280;15036;48.094;-1.690;2023-09-19T09:37:21;100854.19;;;24.07;49.96
27613;BME280;15036;48.094;-1.690;2023-09-19T09:39:51;100842.78;;;23.89;50.36
27613;BME280;15036;48.094;-1.690;2023-09-19T09:42:33;100842.34;;;24.31;49.43
27613;BME280;15036;48.094;-1.690;2023-09-19T09:45:22;100840.28;;;24.90;48.18
27613;BME280;15036;48.094;-1.690;2023-09-19T09:47:54;100842.94;;;24.71;48.02
27613;BME280;15036;48.094;-1.690;2023-09-19T09:52:56;100846.03;;;24.65;47.89
27613;BME280;15036;48.094;-1.690;2023-09-19T09:55:58;100850.19;;;24.72;47.95
27613;BME280;15036;48.094;-1.690;2023-09-19T09:58:25;100854.78;;;24.92;47.13
27613;BME280;15036;48.094;-1.690;2023-09-19T10:00:58;100854.72;;;25.64;46.36
27613;BME280;15036;48.094;-1.690;2023-09-19T10:03:40;100847.81;;;25.57;45.93
27613;BME280;15036;48.094;-1.690;2023-09-19T10:06:12;100850.41;;;25.48;46.52
27613;BME280;15036;48.094;-1.690;2023-09-19T10:09:09;100848.88;;;25.61;46.14
27613;BME280;15036;48.094;-1.690;2023-09-19T10:12:05;100835.38;;;25.68;45.72
27613;BME280;15036;48.094;-1.690;2023-09-19T10:14:35;100834.53;;;25.67;45.00
27613;BME280;15036;48.094;-1.690;2023-09-19T10:17:05;100834.03;;;25.03;46.01
27613;BME280;15036;48.094;-1.690;2023-09-19T10:19:36;100834.75;;;25.47;45.62
27613;BME280;15036;48.094;-1.690;2023-09-19T10:22:04;100836.56;;;25.33;45.48
27613;BME280;15036;48.094;-1.690;2023-09-19T10:24:33;100817.13;;;25.18;45.05
27613;BME280;15036;48.094;-1.690;2023-09-19T10:26:59;100818.50;;;25.49;44.40
27613;BME280;15036;48.094;-1.690;2023-09-19T10:29:27;100815.47;;;25.69;43.40
27613;BME280;15036;48.094;-1.690;2023-09-19T10:31:58;100804.59;;;25.92;42.41
27613;BME280;15036;48.094;-1.690;2023-09-19T10:34:25;100803.72;;;25.72;43.09
27613;BME280;15036;48.094;-1.690;2023-09-19T10:36:52;100807.75;;;25.85;42.37
27613;BME280;15036;48.094;-1.690;2023-09-19T10:39:19;100811.84;;;26.35;41.77
27613;BME280;15036;48.094;-1.690;2023-09-19T10:41:50;100797.09;;;26.85;40.66
27613;BME280;15036;48.094;-1.690;2023-09-19T10:44:24;100797.91;;;26.67;40.86
27613;BME280;15036;48.094;-1.690;2023-09-19T10:46:54;100809.28;;;27.08;40.24
27613;BME280;15036;48.094;-1.690;2023-09-19T10:49:20;100797.78;;;26.77;40.63
27613;BME280;15036;48.094;-1.690;2023-09-19T10:51:47;100795.88;;;26.73;40.77
27613;BME280;15036;48.094;-1.690;2023-09-19T10:54:17;100794.84;;;27.01;40.36
27613;BME280;15036;48.094;-1.690;2023-09-19T10:56:49;100795.81;;;26.59;40.81
27613;BME280;15036;48.094;-1.690;2023-09-19T10:59:20;100800.91;;;26.76;40.89
27613;BME280;15036;48.094;-1.690;2023-09-19T11:01:49;100813.00;;;26.90;40.33
27613;BME280;15036;48.094;-1.690;2023-09-19T11:07:10;100808.78;;;26.74;40.62
27613;BME280;15036;48.094;-1.690;2023-09-19T11:15:02;100795.38;;;26.52;40.81
27613;BME280;15036;48.094;-1.690;2023-09-19T11:17:37;100798.75;;;27.18;39.69
27613;BME280;15036;48.094;-1.690;2023-09-19T11:30:38;100798.16;;;26.52;40.44
27613;BME280;15036;48.094;-1.690;2023-09-19T11:33:20;100787.28;;;27.01;39.92
27613;BME280;15036;48.094;-1.690;2023-09-19T11:36:09;100782.44;;;27.20;39.41
27613;BME280;15036;48.094;-1.690;2023-09-19T11:49:28;100755.63;;;26.50;39.92
27613;BME280;15036;48.094;-1.690;2023-09-19T11:51:55;100757.16;;;27.80;38.33
27613;BME280;15036;48.094;-1.690;2023-09-19T11:54:21;100758.69;;;27.31;38.43
27613;BME280;15036;48.094;-1.690;2023-09-19T11:56:52;100762.13;;;27.69;37.27
27613;BME280;15036;48.094;-1.690;2023-09-19T11:59:26;100759.13;;;27.93;37.06
27613;BME280;15036;48.094;-1.690;2023-09-19T12:02:07;100760.69;;;27.44;37.68
27613;BME280;15036;48.094;-1.690;2023-09-19T12:04:44;100769.13;;;27.99;37.42
27613;BME280;15036;48.094;-1.690;2023-09-19T12:07:15;100771.94;;;28.35;36.20
27613;BME280;15036;48.094;-1.690;2023-09-19T12:09:42;100763.50;;;27.72;37.11
27613;BME280;15036;48.094;-1.690;2023-09-19T12:12:10;100763.25;;;28.22;37.13
27613;BME280;15036;48.094;-1.690;2023-09-19T12:14:38;100768.97;;;28.17;37.12
27613;BME280;15036;48.094;-1.690;2023-09-19T12:17:04;100766.63;;;27.57;37.75
27613;BME280;15036;48.094;-1.690;2023-09-19T12:19:30;100772.13;;;28.02;37.67
27613;BME280;15036;48.094;-1.690;2023-09-19T12:22:02;100763.53;;;27.99;37.32
27613;BME280;15036;48.094;-1.690;2023-09-19T12:24:32;100760.78;;;28.43;37.06
27613;BME280;15036;48.094;-1.690;2023-09-19T12:27:02;100765.78;;;27.83;37.94
27613;BME280;15036;48.094;-1.690;2023-09-19T12:29:31;100777.16;;;27.32;38.61
27613;BME280;15036;48.094;-1.690;2023-09-19T12:31:58;100765.22;;;27.27;39.25
27613;BME280;15036;48.094;-1.690;2023-09-19T12:34:31;100772.06;;;27.21;39.35
27613;BME280;15036;48.094;-1.690;2023-09-19T12:37:13;100772.44;;;27.74;38.39
27613;BME280;15036;48.094;-1.690;2023-09-19T12:39:50;100768.63;;;27.24;38.81
27613;BME280;15036;48.094;-1.690;2023-09-19T12:42:27;100761.03;;;27.11;39.41
27613;BME280;15036;48.094;-1.690;2023-09-19T12:44:57;100758.72;;;27.45;38.69
27613;BME280;15036;48.094;-1.690;2023-09-19T12:47:26;100766.59;;;27.29;39.41
27613;BME280;15036;48.094;-1.690;2023-09-19T12:50:11;100762.00;;;28.15;37.89
27613;BME280;15036;48.094;-1.690;2023-09-19T12:52:48;100765.59;;;27.39;38.57
27613;BME280;15036;48.094;-1.690;2023-09-19T12:55:23;100774.66;;;27.17;38.79
27613;BME280;15036;48.094;-1.690;2023-09-19T12:58:12;100770.22;;;26.47;40.24
27613;BME280;15036;48.094;-1.690;2023-09-19T13:00:40;100775.06;;;26.79;39.20
27613;BME280;15036;48.094;-1.690;2023-09-19T13:06:02;100752.31;;;27.26;38.32
27613;BME280;15036;48.094;-1.690;2023-09-19T13:08:30;100762.47;;;27.08;39.00
27613;BME280;15036;48.094;-1.690;2023-09-19T13:13:25;100760.03;;;26.88;39.36
27613;BME280;15036;48.094;-1.690;2023-09-19T13:15:53;100764.31;;;27.86;37.75
27613;BME280;15036;48.094;-1.690;2023-09-19T13:18:19;100747.72;;;27.49;38.07
27613;BME280;15036;48.094;-1.690;2023-09-19T13:21:05;100741.22;;;27.21;39.18
27613;BME280;15036;48.094;-1.690;2023-09-19T13:23:32;100740.34;;;27.53;38.75
27613;BME280;15036;48.094;-1.690;2023-09-19T13:25:57;100736.28;;;27.72;37.98
27613;BME280;15036;48.094;-1.690;2023-09-19T13:28:22;100747.03;;;27.24;39.37
27613;BME280;15036;48.094;-1.690;2023-09-19T13:30:48;100745.00;;;27.84;38.15
27613;BME280;15036;48.094;-1.690;2023-09-19T13:33:13;100725.84;;;27.05;39.52
27613;BME280;15036;48.094;-1.690;2023-09-19T13:35:46;100729.03;;;26.98;40.00
27613;BME280;15036;48.094;-1.690;2023-09-19T13:38:13;100745.84;;;26.98;40.22
27613;BME280;15036;48.094;-1.690;2023-09-19T13:40:38;100736.00;;;27.01;40.10
27613;BME280;15036;48.094;-1.690;2023-09-19T13:43:04;100731.47;;;27.32;39.24